Flight Track Log - Related Links

Times and Time Zones

All times are in EST time to prevent confusion due to time zone crossing. See the OPT318 flight status page for this flight to view local times or setup timezone preferences in your user account.

Time Position Orientation Groundspeed Altitude Reporting Facility
EST Latitude Longitude Course Direction KTS MPH feet Rate Location/Type
Sun 12:02:34 PM 40.2139 -111.7199 163° South 154 177 5,400  Level FlightAware ADS-B
Sun 12:02:44 PM 40.2065 -111.7208 198° South 174 200 5,900 3,429 Climbing FlightAware ADS-B
Sun 12:02:55 PM 40.1997 -111.7275 230° Southwest 192 221 6,600 3,714 Climbing FlightAware ADS-B
Sun 12:03:05 PM 40.1957 -111.7384 253° West 207 238 7,200 3,767 Climbing FlightAware ADS-B
Sun 12:03:38 PM 40.1890 -111.7841 256° West 240 276 9,300 3,469 Climbing FlightAware ADS-B
Sun 12:04:09 PM 40.1772 -111.8279 249° West 246 283 10,900 3,000 Climbing FlightAware ADS-B
Sun 12:04:20 PM 40.1748 -111.8427 266° West 249 287 11,400 2,400 Climbing FlightAware ADS-B
Sun 12:04:29 PM 40.1765 -111.8575 285° West 251 289 11,700 2,211 Climbing FlightAware ADS-B
Sun 12:04:39 PM 40.1823 -111.8710 306° West 253 291 12,100 2,000 Climbing FlightAware ADS-B
Sun 12:04:44 PM 40.1859 -111.8760 316° Northwest 260 299 12,200 1,800 Climbing FlightAware ADS-B
Sun 12:04:49 PM 40.1915 -111.8812 327° Northwest 255 293 12,400 2,400 Climbing FlightAware ADS-B
Sun 12:04:54 PM 40.1966 -111.8845 338° Northwest 266 306 12,600 1,500 Climbing FlightAware ADS-B
Sun 12:05:05 PM 40.2089 -111.8884 352° North 280 322 12,800 353 Climbing FlightAware ADS-B
Sun 12:05:45 PM 40.2630 -111.8958 353° North 300 345 12,900 169 Climbing FlightAware ADS-B
Sun 12:06:16 PM 40.3067 -111.9029 353° North 311 358 13,000 1,180 Climbing FlightAware ADS-B
Sun 12:06:46 PM 40.3512 -111.9095 354° North 338 389 14,100 2,100 Climbing FlightAware ADS-B
Sun 12:07:16 PM 40.3997 -111.9166 354° North 339 390 15,100 1,967 Climbing FlightAware ADS-B (KBTF)
Sun 12:07:47 PM 40.4481 -111.9234 354° North 336 387 16,100 1,967 Climbing FlightAware ADS-B
Sun 12:08:17 PM 40.4940 -111.9300 354° North 327 376 17,100 1,082 Climbing FlightAware ADS-B
Sun 12:08:48 PM 40.5388 -111.9364 354° North 307 353 17,200 -787 Climbing FlightAware ADS-B
Sun 12:09:18 PM 40.5802 -111.9431 345° North 293 337 16,300 -2,000 Descending FlightAware ADS-B
Sun 12:09:27 PM 40.5913 -111.9500 327° Northwest 286 329 15,900 -2,000 Descending FlightAware ADS-B
Sun 12:09:30 PM 40.5948 -111.9536 318° Northwest 283 326 15,900 -1,333 Level FlightAware ADS-B
Sun 12:09:36 PM 40.5997 -111.9611 306° West 275 316 15,700 -2,211 Descending FlightAware ADS-B (KBTF)
Sun 12:09:49 PM 40.6051 -111.9827 274° West 274 315 15,200 -1,750 Descending FlightAware ADS-B
Sun 12:10:00 PM 40.6043 -111.9995 264° West 266 306 15,000 -429 Descending FlightAware ADS-B
Sun 12:10:31 PM 40.6001 -112.0471 261° West 250 288 14,900 -154 Descending FlightAware ADS-B
Sun 12:10:39 PM 40.5969 -112.0586 242° Southwest 251 289 14,900 -333 Level FlightAware ADS-B
Sun 12:10:49 PM 40.5890 -112.0697 221° Southwest 252 290 14,800 -750 Descending FlightAware ADS-B
Sun 12:10:55 PM 40.5823 -112.0745 202° Southwest 259 298 14,700 -857 Descending FlightAware ADS-B (KBTF)
Sun 12:11:03 PM 40.5747 -112.0767 187° South 263 303 14,600 -1,286 Descending FlightAware ADS-B
Sun 12:11:09 PM 40.5653 -112.0759 169° South 260 299 14,400 -1,500 Descending FlightAware ADS-B
Sun 12:11:15 PM 40.5581 -112.0728 159° South 262 302 14,300 -1,538 Descending FlightAware ADS-B (KBTF)
Sun 12:11:48 PM 40.5211 -112.0506 156° South 266 306 13,400 -1,714 Descending FlightAware ADS-B
Sun 12:12:18 PM 40.4876 -112.0306 156° South 262 302 12,500 -1,935 Descending FlightAware ADS-B
Sun 12:12:50 PM 40.4526 -112.0079 144° Southeast 259 298 11,400 -2,143 Descending FlightAware ADS-B
Sun 12:13:00 PM 40.4432 -111.9966 134° Southeast 264 304 11,000 -2,903 Descending FlightAware ADS-B
Sun 12:13:21 PM 40.4284 -111.9704 124° Southeast 256 295 9,900 -3,158 Descending FlightAware ADS-B
Sun 12:13:38 PM 40.4174 -111.9494 125° Southeast 243 280 9,000 -2,595 Descending FlightAware ADS-B
Sun 12:13:58 PM 40.4051 -111.9265 126° Southeast 225 259 8,300 -1,756 Descending FlightAware ADS-B
Sun 12:14:19 PM 40.3932 -111.9044 125° Southeast 216 249 7,800 -1,500 Descending FlightAware ADS-B
Sun 12:14:30 PM 40.3862 -111.8919 125° Southeast 196 226 7,500 -1,500 Descending FlightAware ADS-B
Sun 12:14:39 PM 40.3810 -111.8831 126° Southeast 188 216 7,300 -1,161 Descending FlightAware ADS-B
Sun 12:15:01 PM 40.3690 -111.8637 129° Southeast 195 224 6,900 -714 Descending FlightAware ADS-B
Sun 12:15:21 PM 40.3570 -111.8462 134° Southeast 190 219 6,800 -450 Descending FlightAware ADS-B
Sun 12:15:41 PM 40.3427 -111.8317 149° Southeast 182 209 6,600 -439 Descending FlightAware ADS-B
Sun 12:16:02 PM 40.3285 -111.8198 145° Southeast 162 186 6,500 -571 Descending FlightAware ADS-B
Sun 12:16:23 PM 40.3171 -111.8087 145° Southeast 147 169 6,200 -600 Descending FlightAware ADS-B
Sun 12:16:42 PM 40.3061 -111.7999 147° Southeast 132 152 6,100 -429 Descending FlightAware ADS-B
Sun 12:17:05 PM 40.2948 -111.7894 144° Southeast 134 154 5,900 -409 Descending FlightAware ADS-B
Sun 12:17:26 PM 40.2843 -111.7802 147° Southeast 136 157 5,800 -585 Descending FlightAware ADS-B
Sun 12:17:46 PM 40.2739 -111.7714 146° Southeast 128 147 5,500 -878 Descending FlightAware ADS-B
Sun 12:18:07 PM 40.2635 -111.7620 146° Southeast 123 142 5,200 -714 Descending FlightAware ADS-B
Sun 12:18:28 PM 40.2545 -111.7542 146° Southeast 112 129 5,000 -615 Descending FlightAware ADS-B
Sun 12:18:46 PM 40.2462 -111.7466 145° Southeast 117 135 4,800 -585 Descending FlightAware ADS-B
Sun 12:19:09 PM 40.2362 -111.7378 145° Southeast 113 130 4,600 -571 Descending FlightAware ADS-B
Sun 12:19:28 PM 40.2281 -111.7306 146° Southeast 104 120 4,400 -632 Descending FlightAware ADS-B

Login

Don't have an account? Register now (free) for customized features, flight alerts, and more!